sensor_id;sensor_type;location;lat;lon;timestamp;P1;durP1;ratioP1;P2;durP2;ratioP2
23952;SDS011;12163;49.316;6.092;2022-12-29T00:00:16;1.95;;;1.48;;
23952;SDS011;12163;49.316;6.092;2022-12-29T00:02:42;2.38;;;1.60;;
23952;SDS011;12163;49.316;6.092;2022-12-29T00:05:09;3.10;;;1.67;;
23952;SDS011;12163;49.316;6.092;2022-12-29T00:07:36;4.93;;;1.77;;
23952;SDS011;12163;49.316;6.092;2022-12-29T00:10:03;2.70;;;1.65;;
23952;SDS011;12163;49.316;6.092;2022-12-29T00:12:30;4.40;;;1.70;;
23952;SDS011;12163;49.316;6.092;2022-12-29T00:15:16;3.45;;;1.60;;
23952;SDS011;12163;49.316;6.092;2022-12-29T00:18:02;4.32;;;1.58;;
23952;SDS011;12163;49.316;6.092;2022-12-29T00:20:28;4.40;;;1.65;;
23952;SDS011;12163;49.316;6.092;2022-12-29T00:23:13;4.25;;;1.77;;
23952;SDS011;12163;49.316;6.092;2022-12-29T00:26:02;3.17;;;1.63;;
23952;SDS011;12163;49.316;6.092;2022-12-29T00:28:49;3.22;;;1.60;;
23952;SDS011;12163;49.316;6.092;2022-12-29T00:31:35;3.35;;;1.83;;
23952;SDS011;12163;49.316;6.092;2022-12-29T00:34:20;2.35;;;1.73;;
23952;SDS011;12163;49.316;6.092;2022-12-29T00:37:05;4.10;;;2.00;;
23952;SDS011;12163;49.316;6.092;2022-12-29T00:39:32;4.90;;;1.75;;
23952;SDS011;12163;49.316;6.092;2022-12-29T00:42:17;6.60;;;2.30;;
23952;SDS011;12163;49.316;6.092;2022-12-29T00:45:02;3.47;;;2.13;;
23952;SDS011;12163;49.316;6.092;2022-12-29T00:47:29;5.15;;;2.17;;
23952;SDS011;12163;49.316;6.092;2022-12-29T00:49:55;4.07;;;2.00;;
23952;SDS011;12163;49.316;6.092;2022-12-29T00:52:22;3.58;;;2.03;;
23952;SDS011;12163;49.316;6.092;2022-12-29T00:54:49;8.48;;;2.38;;
23952;SDS011;12163;49.316;6.092;2022-12-29T00:57:15;4.72;;;2.15;;
23952;SDS011;12163;49.316;6.092;2022-12-29T00:59:43;7.45;;;2.40;;
23952;SDS011;12163;49.316;6.092;2022-12-29T01:02:09;5.65;;;2.00;;
23952;SDS011;12163;49.316;6.092;2022-12-29T01:04:37;5.45;;;2.20;;
23952;SDS011;12163;49.316;6.092;2022-12-29T01:07:04;5.75;;;2.10;;
23952;SDS011;12163;49.316;6.092;2022-12-29T01:09:31;5.38;;;2.00;;
23952;SDS011;12163;49.316;6.092;2022-12-29T01:12:17;6.18;;;2.08;;
23952;SDS011;12163;49.316;6.092;2022-12-29T01:15:03;7.60;;;2.25;;
23952;SDS011;12163;49.316;6.092;2022-12-29T01:17:31;4.93;;;2.60;;
23952;SDS011;12163;49.316;6.092;2022-12-29T01:19:57;5.93;;;2.38;;
23952;SDS011;12163;49.316;6.092;2022-12-29T01:22:24;4.10;;;1.85;;
23952;SDS011;12163;49.316;6.092;2022-12-29T01:24:50;7.85;;;2.20;;
23952;SDS011;12163;49.316;6.092;2022-12-29T01:27:17;4.30;;;1.95;;
23952;SDS011;12163;49.316;6.092;2022-12-29T01:29:44;5.88;;;1.90;;
23952;SDS011;12163;49.316;6.092;2022-12-29T01:32:10;7.03;;;2.30;;
23952;SDS011;12163;49.316;6.092;2022-12-29T01:34:37;5.85;;;2.08;;
23952;SDS011;12163;49.316;6.092;2022-12-29T01:37:03;6.35;;;2.30;;
23952;SDS011;12163;49.316;6.092;2022-12-29T01:39:30;6.40;;;1.88;;
23952;SDS011;12163;49.316;6.092;2022-12-29T01:41:57;5.90;;;1.85;;
23952;SDS011;12163;49.316;6.092;2022-12-29T01:47:09;6.05;;;1.98;;
23952;SDS011;12163;49.316;6.092;2022-12-29T01:49:36;6.40;;;1.88;;
23952;SDS011;12163;49.316;6.092;2022-12-29T01:52:04;7.18;;;1.90;;
23952;SDS011;12163;49.316;6.092;2022-12-29T01:54:36;5.22;;;1.85;;
23952;SDS011;12163;49.316;6.092;2022-12-29T01:57:13;4.35;;;1.83;;
23952;SDS011;12163;49.316;6.092;2022-12-29T01:59:46;3.17;;;1.90;;
23952;SDS011;12163;49.316;6.092;2022-12-29T02:02:22;6.13;;;2.13;;
23952;SDS011;12163;49.316;6.092;2022-12-29T02:04:50;8.38;;;1.85;;
23952;SDS011;12163;49.316;6.092;2022-12-29T02:07:20;6.13;;;1.65;;
23952;SDS011;12163;49.316;6.092;2022-12-29T02:09:49;4.13;;;1.38;;
23952;SDS011;12163;49.316;6.092;2022-12-29T02:12:20;5.10;;;1.73;;
23952;SDS011;12163;49.316;6.092;2022-12-29T02:14:47;4.95;;;1.65;;
23952;SDS011;12163;49.316;6.092;2022-12-29T02:36:30;5.07;;;1.77;;
23952;SDS011;12163;49.316;6.092;2022-12-29T02:42:02;5.13;;;1.60;;
23952;SDS011;12163;49.316;6.092;2022-12-29T02:52:39;3.10;;;1.23;;
23952;SDS011;12163;49.316;6.092;2022-12-29T02:55:14;9.45;;;1.52;;
23952;SDS011;12163;49.316;6.092;2022-12-29T02:57:41;5.40;;;1.52;;
23952;SDS011;12163;49.316;6.092;2022-12-29T03:00:08;4.07;;;1.52;;
23952;SDS011;12163;49.316;6.092;2022-12-29T03:16:32;4.18;;;1.30;;
23952;SDS011;12163;49.316;6.092;2022-12-29T03:19:05;4.57;;;1.40;;
23952;SDS011;12163;49.316;6.092;2022-12-29T03:21:43;5.53;;;1.40;;
23952;SDS011;12163;49.316;6.092;2022-12-29T03:24:33;7.38;;;1.83;;
23952;SDS011;12163;49.316;6.092;2022-12-29T03:27:04;5.65;;;1.60;;
23952;SDS011;12163;49.316;6.092;2022-12-29T03:29:35;4.57;;;1.75;;
23952;SDS011;12163;49.316;6.092;2022-12-29T03:32:07;4.30;;;1.25;;
23952;SDS011;12163;49.316;6.092;2022-12-29T03:34:35;10.32;;;1.50;;
23952;SDS011;12163;49.316;6.092;2022-12-29T03:37:11;4.20;;;1.55;;
23952;SDS011;12163;49.316;6.092;2022-12-29T03:39:43;4.63;;;1.42;;
23952;SDS011;12163;49.316;6.092;2022-12-29T03:42:13;4.93;;;1.60;;
23952;SDS011;12163;49.316;6.092;2022-12-29T03:44:44;3.38;;;1.50;;
23952;SDS011;12163;49.316;6.092;2022-12-29T03:47:11;2.58;;;1.63;;
23952;SDS011;12163;49.316;6.092;2022-12-29T03:49:39;8.15;;;1.75;;
23952;SDS011;12163;49.316;6.092;2022-12-29T03:52:06;3.10;;;1.70;;
23952;SDS011;12163;49.316;6.092;2022-12-29T03:54:33;2.45;;;1.20;;
23952;SDS011;12163;49.316;6.092;2022-12-29T03:57:00;5.07;;;1.55;;
23952;SDS011;12163;49.316;6.092;2022-12-29T03:59:26;5.35;;;1.50;;
23952;SDS011;12163;49.316;6.092;2022-12-29T04:01:53;10.20;;;1.73;;
23952;SDS011;12163;49.316;6.092;2022-12-29T04:04:20;4.55;;;1.58;;
23952;SDS011;12163;49.316;6.092;2022-12-29T04:06:46;5.53;;;1.60;;
23952;SDS011;12163;49.316;6.092;2022-12-29T04:09:13;6.25;;;1.60;;
23952;SDS011;12163;49.316;6.092;2022-12-29T04:11:40;5.47;;;1.70;;
23952;SDS011;12163;49.316;6.092;2022-12-29T04:14:06;6.53;;;1.63;;
23952;SDS011;12163;49.316;6.092;2022-12-29T04:16:33;5.30;;;1.40;;
23952;SDS011;12163;49.316;6.092;2022-12-29T04:19:02;5.25;;;1.80;;
23952;SDS011;12163;49.316;6.092;2022-12-29T04:21:28;6.00;;;1.63;;
23952;SDS011;12163;49.316;6.092;2022-12-29T04:23:55;3.50;;;1.30;;
23952;SDS011;12163;49.316;6.092;2022-12-29T04:26:22;4.90;;;1.30;;
23952;SDS011;12163;49.316;6.092;2022-12-29T04:28:48;3.85;;;1.50;;
23952;SDS011;12163;49.316;6.092;2022-12-29T04:31:15;3.20;;;1.40;;
23952;SDS011;12163;49.316;6.092;2022-12-29T04:33:43;3.03;;;1.40;;
23952;SDS011;12163;49.316;6.092;2022-12-29T04:36:10;4.97;;;1.40;;
23952;SDS011;12163;49.316;6.092;2022-12-29T04:38:36;6.65;;;1.55;;
23952;SDS011;12163;49.316;6.092;2022-12-29T04:41:03;5.20;;;1.30;;
23952;SDS011;12163;49.316;6.092;2022-12-29T04:43:30;5.40;;;1.60;;
23952;SDS011;12163;49.316;6.092;2022-12-29T04:45:57;3.35;;;1.15;;
23952;SDS011;12163;49.316;6.092;2022-12-29T04:48:23;5.82;;;1.70;;
23952;SDS011;12163;49.316;6.092;2022-12-29T04:50:50;7.40;;;1.40;;
23952;SDS011;12163;49.316;6.092;2022-12-29T04:53:17;6.20;;;1.95;;
23952;SDS011;12163;49.316;6.092;2022-12-29T04:55:44;4.30;;;1.60;;
23952;SDS011;12163;49.316;6.092;2022-12-29T04:58:14;1.65;;;0.98;;
23952;SDS011;12163;49.316;6.092;2022-12-29T05:00:47;3.40;;;1.63;;
23952;SDS011;12163;49.316;6.092;2022-12-29T05:03:14;4.18;;;1.67;;
23952;SDS011;12163;49.316;6.092;2022-12-29T05:05:41;5.18;;;1.55;;
23952;SDS011;12163;49.316;6.092;2022-12-29T05:08:07;5.10;;;1.55;;
23952;SDS011;12163;49.316;6.092;2022-12-29T05:10:34;4.00;;;1.50;;
23952;SDS011;12163;49.316;6.092;2022-12-29T05:13:01;6.70;;;1.70;;
23952;SDS011;12163;49.316;6.092;2022-12-29T05:15:27;6.32;;;1.55;;
23952;SDS011;12163;49.316;6.092;2022-12-29T05:17:54;5.25;;;2.08;;
23952;SDS011;12163;49.316;6.092;2022-12-29T05:20:21;3.53;;;1.80;;
23952;SDS011;12163;49.316;6.092;2022-12-29T05:22:48;4.40;;;1.73;;
23952;SDS011;12163;49.316;6.092;2022-12-29T05:25:14;5.00;;;1.73;;
23952;SDS011;12163;49.316;6.092;2022-12-29T05:27:41;8.18;;;1.77;;
23952;SDS011;12163;49.316;6.092;2022-12-29T05:30:07;8.50;;;1.50;;
23952;SDS011;12163;49.316;6.092;2022-12-29T05:32:35;4.05;;;1.65;;
23952;SDS011;12163;49.316;6.092;2022-12-29T05:35:01;8.98;;;1.85;;
23952;SDS011;12163;49.316;6.092;2022-12-29T05:37:28;5.97;;;1.50;;
23952;SDS011;12163;49.316;6.092;2022-12-29T05:39:55;5.55;;;1.67;;
23952;SDS011;12163;49.316;6.092;2022-12-29T05:42:21;7.47;;;2.13;;
23952;SDS011;12163;49.316;6.092;2022-12-29T05:44:48;7.03;;;2.10;;
23952;SDS011;12163;49.316;6.092;2022-12-29T05:47:18;8.30;;;2.30;;
23952;SDS011;12163;49.316;6.092;2022-12-29T05:49:44;5.30;;;1.83;;
23952;SDS011;12163;49.316;6.092;2022-12-29T05:52:11;9.10;;;2.22;;
23952;SDS011;12163;49.316;6.092;2022-12-29T05:54:37;5.30;;;1.92;;
23952;SDS011;12163;49.316;6.092;2022-12-29T05:57:04;6.82;;;2.10;;
23952;SDS011;12163;49.316;6.092;2022-12-29T05:59:31;6.18;;;1.90;;
23952;SDS011;12163;49.316;6.092;2022-12-29T06:01:57;8.40;;;1.98;;
23952;SDS011;12163;49.316;6.092;2022-12-29T06:04:24;7.03;;;2.03;;
23952;SDS011;12163;49.316;6.092;2022-12-29T06:06:51;7.00;;;1.98;;
23952;SDS011;12163;49.316;6.092;2022-12-29T06:09:17;3.72;;;1.83;;
23952;SDS011;12163;49.316;6.092;2022-12-29T06:11:44;4.70;;;1.70;;
23952;SDS011;12163;49.316;6.092;2022-12-29T06:14:11;5.50;;;1.70;;
23952;SDS011;12163;49.316;6.092;2022-12-29T06:16:37;6.90;;;1.92;;
23952;SDS011;12163;49.316;6.092;2022-12-29T06:19:04;7.00;;;2.00;;
23952;SDS011;12163;49.316;6.092;2022-12-29T06:21:30;2.72;;;1.85;;
23952;SDS011;12163;49.316;6.092;2022-12-29T06:23:57;6.32;;;2.28;;
23952;SDS011;12163;49.316;6.092;2022-12-29T06:26:24;5.28;;;2.13;;
23952;SDS011;12163;49.316;6.092;2022-12-29T06:28:50;8.80;;;2.50;;
23952;SDS011;12163;49.316;6.092;2022-12-29T06:31:17;9.02;;;2.10;;
23952;SDS011;12163;49.316;6.092;2022-12-29T06:33:44;5.32;;;2.13;;
23952;SDS011;12163;49.316;6.092;2022-12-29T06:36:15;8.03;;;2.10;;
23952;SDS011;12163;49.316;6.092;2022-12-29T06:38:42;6.30;;;2.22;;
23952;SDS011;12163;49.316;6.092;2022-12-29T06:41:09;9.82;;;2.25;;
23952;SDS011;12163;49.316;6.092;2022-12-29T06:43:36;5.97;;;1.67;;
23952;SDS011;12163;49.316;6.092;2022-12-29T06:46:04;5.68;;;1.73;;
23952;SDS011;12163;49.316;6.092;2022-12-29T06:48:31;5.63;;;2.17;;
23952;SDS011;12163;49.316;6.092;2022-12-29T06:50:58;6.72;;;2.15;;
23952;SDS011;12163;49.316;6.092;2022-12-29T06:53:25;7.53;;;2.42;;
23952;SDS011;12163;49.316;6.092;2022-12-29T06:55:52;7.63;;;2.70;;
23952;SDS011;12163;49.316;6.092;2022-12-29T06:58:18;5.25;;;1.85;;
23952;SDS011;12163;49.316;6.092;2022-12-29T07:00:45;3.70;;;1.85;;
23952;SDS011;12163;49.316;6.092;2022-12-29T07:03:12;4.57;;;2.00;;
23952;SDS011;12163;49.316;6.092;2022-12-29T07:05:39;4.45;;;2.00;;
23952;SDS011;12163;49.316;6.092;2022-12-29T07:08:05;4.43;;;1.88;;
23952;SDS011;12163;49.316;6.092;2022-12-29T07:10:32;8.75;;;2.15;;
23952;SDS011;12163;49.316;6.092;2022-12-29T07:12:59;3.92;;;2.05;;
23952;SDS011;12163;49.316;6.092;2022-12-29T07:15:25;7.30;;;2.15;;
23952;SDS011;12163;49.316;6.092;2022-12-29T07:17:52;4.65;;;2.10;;
23952;SDS011;12163;49.316;6.092;2022-12-29T07:20:19;4.47;;;1.80;;
23952;SDS011;12163;49.316;6.092;2022-12-29T07:22:52;7.07;;;2.13;;
23952;SDS011;12163;49.316;6.092;2022-12-29T07:25:18;3.92;;;1.90;;
23952;SDS011;12163;49.316;6.092;2022-12-29T07:27:45;4.75;;;1.70;;
23952;SDS011;12163;49.316;6.092;2022-12-29T07:30:11;5.47;;;1.88;;
23952;SDS011;12163;49.316;6.092;2022-12-29T07:32:38;4.43;;;1.75;;
23952;SDS011;12163;49.316;6.092;2022-12-29T07:35:05;4.15;;;1.75;;
23952;SDS011;12163;49.316;6.092;2022-12-29T07:37:33;5.10;;;1.73;;
23952;SDS011;12163;49.316;6.092;2022-12-29T07:40:01;7.80;;;1.90;;
23952;SDS011;12163;49.316;6.092;2022-12-29T07:42:30;5.82;;;1.98;;
23952;SDS011;12163;49.316;6.092;2022-12-29T07:44:57;8.43;;;2.05;;
23952;SDS011;12163;49.316;6.092;2022-12-29T07:47:23;3.90;;;1.80;;
23952;SDS011;12163;49.316;6.092;2022-12-29T07:49:50;3.97;;;1.60;;
23952;SDS011;12163;49.316;6.092;2022-12-29T07:52:16;5.63;;;1.83;;
23952;SDS011;12163;49.316;6.092;2022-12-29T07:54:43;6.45;;;2.33;;
23952;SDS011;12163;49.316;6.092;2022-12-29T07:57:10;6.63;;;1.80;;
23952;SDS011;12163;49.316;6.092;2022-12-29T07:59:36;5.35;;;1.90;;
23952;SDS011;12163;49.316;6.092;2022-12-29T08:02:03;5.22;;;1.55;;
23952;SDS011;12163;49.316;6.092;2022-12-29T08:04:30;4.22;;;1.63;;
23952;SDS011;12163;49.316;6.092;2022-12-29T08:06:57;6.45;;;1.92;;
23952;SDS011;12163;49.316;6.092;2022-12-29T08:09:23;6.07;;;1.33;;
23952;SDS011;12163;49.316;6.092;2022-12-29T08:11:50;1.98;;;1.27;;
23952;SDS011;12163;49.316;6.092;2022-12-29T08:14:17;4.68;;;1.40;;
23952;SDS011;12163;49.316;6.092;2022-12-29T08:16:44;7.20;;;1.27;;
23952;SDS011;12163;49.316;6.092;2022-12-29T08:19:11;7.32;;;1.80;;
23952;SDS011;12163;49.316;6.092;2022-12-29T08:21:38;3.85;;;1.38;;
23952;SDS011;12163;49.316;6.092;2022-12-29T08:24:05;3.25;;;0.98;;
23952;SDS011;12163;49.316;6.092;2022-12-29T08:26:32;4.47;;;1.23;;
23952;SDS011;12163;49.316;6.092;2022-12-29T08:28:59;6.97;;;1.38;;
23952;SDS011;12163;49.316;6.092;2022-12-29T08:31:26;4.20;;;1.25;;
23952;SDS011;12163;49.316;6.092;2022-12-29T08:33:52;7.60;;;2.03;;
23952;SDS011;12163;49.316;6.092;2022-12-29T08:36:19;5.72;;;1.25;;
23952;SDS011;12163;49.316;6.092;2022-12-29T08:38:46;9.18;;;1.30;;
23952;SDS011;12163;49.316;6.092;2022-12-29T08:41:13;3.70;;;1.25;;
23952;SDS011;12163;49.316;6.092;2022-12-29T08:43:39;4.03;;;1.05;;
23952;SDS011;12163;49.316;6.092;2022-12-29T08:46:06;7.47;;;1.42;;
23952;SDS011;12163;49.316;6.092;2022-12-29T08:48:32;4.05;;;0.98;;
23952;SDS011;12163;49.316;6.092;2022-12-29T08:50:59;6.07;;;1.05;;
23952;SDS011;12163;49.316;6.092;2022-12-29T08:53:26;6.07;;;1.23;;
23952;SDS011;12163;49.316;6.092;2022-12-29T08:55:57;4.57;;;1.42;;
23952;SDS011;12163;49.316;6.092;2022-12-29T08:58:30;5.07;;;0.95;;
23952;SDS011;12163;49.316;6.092;2022-12-29T09:00:58;8.02;;;1.90;;
23952;SDS011;12163;49.316;6.092;2022-12-29T09:03:24;6.68;;;1.50;;
23952;SDS011;12163;49.316;6.092;2022-12-29T09:06:11;6.03;;;1.30;;
23952;SDS011;12163;49.316;6.092;2022-12-29T09:08:38;5.05;;;1.40;;
23952;SDS011;12163;49.316;6.092;2022-12-29T09:11:06;9.95;;;1.70;;
23952;SDS011;12163;49.316;6.092;2022-12-29T09:13:44;4.78;;;0.95;;
23952;SDS011;12163;49.316;6.092;2022-12-29T09:16:11;8.73;;;2.33;;
23952;SDS011;12163;49.316;6.092;2022-12-29T09:18:38;9.50;;;1.42;;
23952;SDS011;12163;49.316;6.092;2022-12-29T09:21:05;7.70;;;1.40;;
23952;SDS011;12163;49.316;6.092;2022-12-29T09:23:33;3.80;;;1.17;;
23952;SDS011;12163;49.316;6.092;2022-12-29T09:26:00;5.25;;;1.20;;
23952;SDS011;12163;49.316;6.092;2022-12-29T09:28:27;8.52;;;1.58;;
23952;SDS011;12163;49.316;6.092;2022-12-29T09:30:55;5.35;;;1.50;;
23952;SDS011;12163;49.316;6.092;2022-12-29T09:33:23;7.05;;;1.52;;
23952;SDS011;12163;49.316;6.092;2022-12-29T09:35:51;8.23;;;1.30;;
23952;SDS011;12163;49.316;6.092;2022-12-29T09:38:22;13.00;;;1.88;;
23952;SDS011;12163;49.316;6.092;2022-12-29T09:40:51;4.32;;;1.60;;
23952;SDS011;12163;49.316;6.092;2022-12-29T09:49:06;5.80;;;1.58;;
23952;SDS011;12163;49.316;6.092;2022-12-29T09:51:43;9.57;;;1.30;;
23952;SDS011;12163;49.316;6.092;2022-12-29T09:54:23;5.07;;;1.25;;
23952;SDS011;12163;49.316;6.092;2022-12-29T09:56:59;3.10;;;1.00;;
23952;SDS011;12163;49.316;6.092;2022-12-29T09:59:38;5.55;;;2.15;;
23952;SDS011;12163;49.316;6.092;2022-12-29T10:02:20;4.72;;;1.20;;
23952;SDS011;12163;49.316;6.092;2022-12-29T10:04:57;5.28;;;0.90;;
23952;SDS011;12163;49.316;6.092;2022-12-29T10:11:12;5.63;;;1.25;;
23952;SDS011;12163;49.316;6.092;2022-12-29T10:13:32;8.73;;;1.30;;
23952;SDS011;12163;49.316;6.092;2022-12-29T10:16:17;4.53;;;1.33;;
23952;SDS011;12163;49.316;6.092;2022-12-29T10:24:40;5.90;;;1.65;;
23952;SDS011;12163;49.316;6.092;2022-12-29T10:27:10;5.05;;;1.55;;
23952;SDS011;12163;49.316;6.092;2022-12-29T10:29:40;4.47;;;1.42;;
23952;SDS011;12163;49.316;6.092;2022-12-29T10:34:51;5.22;;;1.60;;
23952;SDS011;12163;49.316;6.092;2022-12-29T10:40:18;6.07;;;1.48;;
23952;SDS011;12163;49.316;6.092;2022-12-29T10:42:52;4.88;;;1.38;;
23952;SDS011;12163;49.316;6.092;2022-12-29T10:45:21;5.55;;;1.42;;
23952;SDS011;12163;49.316;6.092;2022-12-29T10:47:56;5.28;;;1.33;;
23952;SDS011;12163;49.316;6.092;2022-12-29T10:50:27;6.30;;;1.63;;
23952;SDS011;12163;49.316;6.092;2022-12-29T10:52:57;7.93;;;1.40;;
23952;SDS011;12163;49.316;6.092;2022-12-29T10:55:29;10.60;;;1.80;;
23952;SDS011;12163;49.316;6.092;2022-12-29T10:58:01;9.18;;;1.50;;
23952;SDS011;12163;49.316;6.092;2022-12-29T11:00:32;5.40;;;1.37;;
23952;SDS011;12163;49.316;6.092;2022-12-29T11:08:03;11.40;;;2.08;;
23952;SDS011;12163;49.316;6.092;2022-12-29T11:10:37;7.43;;;1.50;;
23952;SDS011;12163;49.316;6.092;2022-12-29T11:13:11;9.20;;;1.55;;
23952;SDS011;12163;49.316;6.092;2022-12-29T11:15:39;6.05;;;1.52;;
23952;SDS011;12163;49.316;6.092;2022-12-29T11:18:17;5.18;;;1.70;;
23952;SDS011;12163;49.316;6.092;2022-12-29T11:20:49;5.97;;;1.30;;
23952;SDS011;12163;49.316;6.092;2022-12-29T11:23:34;6.25;;;1.38;;
23952;SDS011;12163;49.316;6.092;2022-12-29T11:31:41;4.60;;;1.15;;
23952;SDS011;12163;49.316;6.092;2022-12-29T11:34:08;7.25;;;1.40;;
23952;SDS011;12163;49.316;6.092;2022-12-29T11:36:43;5.75;;;1.25;;
23952;SDS011;12163;49.316;6.092;2022-12-29T11:39:22;6.68;;;1.60;;
23952;SDS011;12163;49.316;6.092;2022-12-29T11:42:00;5.50;;;1.67;;
23952;SDS011;12163;49.316;6.092;2022-12-29T11:44:30;6.88;;;1.27;;
23952;SDS011;12163;49.316;6.092;2022-12-29T11:47:03;5.72;;;1.27;;
23952;SDS011;12163;49.316;6.092;2022-12-29T11:49:31;7.85;;;1.83;;
23952;SDS011;12163;49.316;6.092;2022-12-29T11:51:58;8.40;;;1.65;;
23952;SDS011;12163;49.316;6.092;2022-12-29T11:54:30;5.68;;;1.13;;
23952;SDS011;12163;49.316;6.092;2022-12-29T11:57:07;4.28;;;1.23;;
23952;SDS011;12163;49.316;6.092;2022-12-29T11:59:41;7.47;;;1.60;;
23952;SDS011;12163;49.316;6.092;2022-12-29T12:04:51;8.32;;;1.50;;
23952;SDS011;12163;49.316;6.092;2022-12-29T12:07:39;4.80;;;1.15;;
23952;SDS011;12163;49.316;6.092;2022-12-29T12:10:42;6.85;;;1.52;;
23952;SDS011;12163;49.316;6.092;2022-12-29T12:13:42;14.50;;;1.95;;
23952;SDS011;12163;49.316;6.092;2022-12-29T12:16:27;11.10;;;2.00;;
23952;SDS011;12163;49.316;6.092;2022-12-29T12:19:31;5.72;;;1.67;;
23952;SDS011;12163;49.316;6.092;2022-12-29T12:22:01;6.78;;;1.90;;
23952;SDS011;12163;49.316;6.092;2022-12-29T12:24:41;6.15;;;1.35;;
23952;SDS011;12163;49.316;6.092;2022-12-29T12:29:52;5.32;;;1.27;;
23952;SDS011;12163;49.316;6.092;2022-12-29T12:35:40;8.52;;;1.92;;
23952;SDS011;12163;49.316;6.092;2022-12-29T12:41:00;8.07;;;1.67;;
23952;SDS011;12163;49.316;6.092;2022-12-29T12:57:40;6.10;;;2.42;;
23952;SDS011;12163;49.316;6.092;2022-12-29T13:00:18;7.28;;;1.90;;
23952;SDS011;12163;49.316;6.092;2022-12-29T13:08:06;6.45;;;1.45;;
23952;SDS011;12163;49.316;6.092;2022-12-29T13:13:39;10.88;;;2.10;;
23952;SDS011;12163;49.316;6.092;2022-12-29T13:16:49;12.90;;;1.90;;
23952;SDS011;12163;49.316;6.092;2022-12-29T13:19:34;10.33;;;2.00;;
23952;SDS011;12163;49.316;6.092;2022-12-29T13:22:16;8.15;;;1.80;;
23952;SDS011;12163;49.316;6.092;2022-12-29T13:30:10;11.68;;;2.70;;
23952;SDS011;12163;49.316;6.092;2022-12-29T13:32:45;6.60;;;1.73;;
23952;SDS011;12163;49.316;6.092;2022-12-29T13:38:36;14.95;;;2.20;;
23952;SDS011;12163;49.316;6.092;2022-12-29T13:41:10;7.93;;;1.85;;
23952;SDS011;12163;49.316;6.092;2022-12-29T13:43:53;9.00;;;2.20;;
23952;SDS011;12163;49.316;6.092;2022-12-29T13:46:26;16.02;;;2.30;;
23952;SDS011;12163;49.316;6.092;2022-12-29T13:51:40;10.93;;;2.35;;
23952;SDS011;12163;49.316;6.092;2022-12-29T13:57:10;12.73;;;2.28;;
23952;SDS011;12163;49.316;6.092;2022-12-29T14:00:03;12.18;;;2.08;;
23952;SDS011;12163;49.316;6.092;2022-12-29T14:02:46;11.35;;;2.20;;
23952;SDS011;12163;49.316;6.092;2022-12-29T14:07:44;7.15;;;1.98;;
23952;SDS011;12163;49.316;6.092;2022-12-29T14:15:40;13.65;;;2.28;;
23952;SDS011;12163;49.316;6.092;2022-12-29T14:18:18;8.80;;;2.33;;
23952;SDS011;12163;49.316;6.092;2022-12-29T14:23:35;13.68;;;1.90;;
23952;SDS011;12163;49.316;6.092;2022-12-29T14:36:38;14.60;;;2.17;;
23952;SDS011;12163;49.316;6.092;2022-12-29T14:42:00;10.77;;;2.15;;
23952;SDS011;12163;49.316;6.092;2022-12-29T14:44:27;13.63;;;2.45;;
23952;SDS011;12163;49.316;6.092;2022-12-29T14:49:24;11.38;;;2.60;;
23952;SDS011;12163;49.316;6.092;2022-12-29T14:51:55;13.93;;;2.38;;
23952;SDS011;12163;49.316;6.092;2022-12-29T14:57:05;16.13;;;2.78;;
23952;SDS011;12163;49.316;6.092;2022-12-29T14:59:36;16.55;;;3.00;;
23952;SDS011;12163;49.316;6.092;2022-12-29T15:02:05;14.43;;;2.30;;
23952;SDS011;12163;49.316;6.092;2022-12-29T15:04:42;18.48;;;2.58;;
23952;SDS011;12163;49.316;6.092;2022-12-29T15:07:10;15.45;;;2.70;;
23952;SDS011;12163;49.316;6.092;2022-12-29T15:09:45;15.13;;;3.20;;
23952;SDS011;12163;49.316;6.092;2022-12-29T15:12:23;13.25;;;2.47;;
23952;SDS011;12163;49.316;6.092;2022-12-29T15:15:16;11.35;;;2.40;;
23952;SDS011;12163;49.316;6.092;2022-12-29T15:17:51;15.50;;;2.75;;
23952;SDS011;12163;49.316;6.092;2022-12-29T15:22:55;18.42;;;3.25;;
23952;SDS011;12163;49.316;6.092;2022-12-29T15:25:24;16.05;;;2.08;;
23952;SDS011;12163;49.316;6.092;2022-12-29T15:28:01;14.52;;;2.83;;
23952;SDS011;12163;49.316;6.092;2022-12-29T15:30:31;13.25;;;2.35;;
23952;SDS011;12163;49.316;6.092;2022-12-29T15:32:57;14.85;;;2.72;;
23952;SDS011;12163;49.316;6.092;2022-12-29T15:35:34;13.00;;;2.40;;
23952;SDS011;12163;49.316;6.092;2022-12-29T15:38:22;12.65;;;2.30;;
23952;SDS011;12163;49.316;6.092;2022-12-29T15:41:00;13.52;;;2.70;;
23952;SDS011;12163;49.316;6.092;2022-12-29T15:46:12;14.93;;;2.42;;
23952;SDS011;12163;49.316;6.092;2022-12-29T15:48:40;13.25;;;2.80;;
23952;SDS011;12163;49.316;6.092;2022-12-29T15:51:29;14.82;;;2.42;;
23952;SDS011;12163;49.316;6.092;2022-12-29T15:53:59;13.55;;;2.53;;
23952;SDS011;12163;49.316;6.092;2022-12-29T15:56:29;12.40;;;3.00;;
23952;SDS011;12163;49.316;6.092;2022-12-29T15:58:59;20.40;;;3.38;;
23952;SDS011;12163;49.316;6.092;2022-12-29T16:01:35;17.85;;;2.40;;
23952;SDS011;12163;49.316;6.092;2022-12-29T16:04:04;14.05;;;2.60;;
23952;SDS011;12163;49.316;6.092;2022-12-29T16:06:34;13.13;;;2.63;;
23952;SDS011;12163;49.316;6.092;2022-12-29T16:11:32;12.68;;;2.47;;
23952;SDS011;12163;49.316;6.092;2022-12-29T16:14:05;15.73;;;2.90;;
23952;SDS011;12163;49.316;6.092;2022-12-29T16:16:37;14.80;;;2.75;;
23952;SDS011;12163;49.316;6.092;2022-12-29T16:19:21;15.55;;;2.65;;
23952;SDS011;12163;49.316;6.092;2022-12-29T16:21:53;18.48;;;3.25;;
23952;SDS011;12163;49.316;6.092;2022-12-29T16:24:21;22.98;;;3.40;;
23952;SDS011;12163;49.316;6.092;2022-12-29T16:26:53;13.13;;;2.75;;
23952;SDS011;12163;49.316;6.092;2022-12-29T16:29:22;20.45;;;2.58;;
23952;SDS011;12163;49.316;6.092;2022-12-29T16:34:33;16.92;;;2.20;;
23952;SDS011;12163;49.316;6.092;2022-12-29T16:37:31;17.65;;;3.40;;
23952;SDS011;12163;49.316;6.092;2022-12-29T16:40:22;20.15;;;3.70;;
23952;SDS011;12163;49.316;6.092;2022-12-29T16:43:00;18.02;;;3.28;;
23952;SDS011;12163;49.316;6.092;2022-12-29T16:51:30;21.52;;;3.53;;
23952;SDS011;12163;49.316;6.092;2022-12-29T16:53:59;18.05;;;3.38;;
23952;SDS011;12163;49.316;6.092;2022-12-29T16:56:27;13.57;;;2.65;;
23952;SDS011;12163;49.316;6.092;2022-12-29T16:59:18;17.05;;;2.47;;
23952;SDS011;12163;49.316;6.092;2022-12-29T17:01:55;13.98;;;2.45;;
23952;SDS011;12163;49.316;6.092;2022-12-29T17:04:24;16.10;;;2.70;;
23952;SDS011;12163;49.316;6.092;2022-12-29T17:06:50;21.20;;;7.78;;
23952;SDS011;12163;49.316;6.092;2022-12-29T17:09:27;15.35;;;2.90;;
23952;SDS011;12163;49.316;6.092;2022-12-29T17:11:55;15.15;;;2.83;;
23952;SDS011;12163;49.316;6.092;2022-12-29T17:17:06;17.65;;;2.63;;
23952;SDS011;12163;49.316;6.092;2022-12-29T17:20:04;15.10;;;2.42;;
23952;SDS011;12163;49.316;6.092;2022-12-29T17:22:40;12.02;;;2.13;;
23952;SDS011;12163;49.316;6.092;2022-12-29T17:25:08;19.25;;;3.13;;
23952;SDS011;12163;49.316;6.092;2022-12-29T17:27:42;19.83;;;2.95;;
23952;SDS011;12163;49.316;6.092;2022-12-29T17:30:16;12.02;;;2.58;;
23952;SDS011;12163;49.316;6.092;2022-12-29T17:32:50;17.38;;;2.65;;
23952;SDS011;12163;49.316;6.092;2022-12-29T17:35:19;15.55;;;2.45;;
23952;SDS011;12163;49.316;6.092;2022-12-29T17:37:47;11.23;;;2.45;;
23952;SDS011;12163;49.316;6.092;2022-12-29T17:40:15;14.50;;;2.63;;
23952;SDS011;12163;49.316;6.092;2022-12-29T17:42:43;19.92;;;3.45;;
23952;SDS011;12163;49.316;6.092;2022-12-29T17:45:16;16.90;;;2.70;;
23952;SDS011;12163;49.316;6.092;2022-12-29T17:47:45;10.02;;;2.25;;
23952;SDS011;12163;49.316;6.092;2022-12-29T17:50:13;17.85;;;2.60;;
23952;SDS011;12163;49.316;6.092;2022-12-29T17:52:42;20.08;;;3.00;;
23952;SDS011;12163;49.316;6.092;2022-12-29T17:55:16;15.80;;;2.97;;
23952;SDS011;12163;49.316;6.092;2022-12-29T17:57:44;13.57;;;2.30;;
23952;SDS011;12163;49.316;6.092;2022-12-29T18:00:19;15.38;;;2.90;;
23952;SDS011;12163;49.316;6.092;2022-12-29T18:02:47;11.68;;;2.42;;